Check out our new PWSWeather beta!
PWSweather.com
Personal Weather Stations
Station Observations
79674
AfterstegDE 79674

AfterstegDE 79674

Lat: 47.84344, Lon: 7.92844

Elevation: 809

Station Type: Davis Vantage 2 Aktive

www.wetter-aftersteg.de

High Low Average
Temperature 62.2°F16.8°C 36.5°F2.5°C 49.6°F9.8°C
Dew Point 45.9°F7.7°C 34.2°F1.2°C 39.3°F4.1°C
Winds 4.0 mph 6.4 kmh Calm Calm 1.0 mph WSW1.6 kmh WSW
Wind Gusts 6.9 mph11.1 kmh -- 1.0 mph1.6 kmh
Humidity 94% 40% 70%
Pressure 30.09 in1019.0 mb 29.95 in1014.2 mb -
Precipitation 0.00 in0.0 mm - -
Hour Temp Dew Point Humidity Winds Wind Gusts Pressure Precip Precip Rate Daily Precip Total
12:02 AM 38.8°F3.8°C 37.0°F2.8°C 93% Calm Calm -- 30.11 in1019.6 mb - 0.00 in0.0 mm 0.00 in0.0 mm
12:07 AM 38.8°F3.8°C 36.7°F2.6°C 92% Calm Calm -- 30.11 in1019.6 mb - 0.00 in0.0 mm 0.00 in0.0 mm
12:12 AM 38.7°F3.7°C 36.9°F2.7°C 93% Calm Calm -- 30.11 in1019.6 mb - 0.00 in0.0 mm 0.00 in0.0 mm
12:17 AM 38.5°F3.6°C 36.3°F2.4°C 92% Calm Calm -- 30.11 in1019.6 mb - 0.00 in0.0 mm 0.00 in0.0 mm
12:22 AM 38.5°F3.6°C 36.7°F2.6°C 93% Calm Calm -- 30.11 in1019.6 mb - 0.00 in0.0 mm 0.00 in0.0 mm
12:27 AM 38.3°F3.5°C 36.5°F2.5°C 93% Calm Calm -- 30.11 in1019.6 mb - 0.00 in0.0 mm 0.00 in0.0 mm
12:32 AM 38.3°F3.5°C 36.5°F2.5°C 93% Calm Calm -- 30.10 in1019.3 mb - 0.00 in0.0 mm 0.00 in0.0 mm
12:37 AM 38.5°F3.6°C 36.7°F2.6°C 93% Calm Calm -- 30.10 in1019.3 mb - 0.00 in0.0 mm 0.00 in0.0 mm
12:42 AM 38.3°F3.5°C 36.5°F2.5°C 93% Calm Calm -- 30.10 in1019.3 mb - 0.00 in0.0 mm 0.00 in0.0 mm
12:47 AM 38.1°F3.4°C 36.3°F2.4°C 93% Calm Calm -- 30.10 in1019.3 mb - 0.00 in0.0 mm 0.00 in0.0 mm
12:52 AM 38.1°F3.4°C 36.3°F2.4°C 93% Calm Calm -- 30.10 in1019.3 mb - 0.00 in0.0 mm 0.00 in0.0 mm
12:57 AM 38.1°F3.4°C 36.3°F2.4°C 93% Calm Calm -- 30.10 in1019.3 mb - 0.00 in0.0 mm 0.00 in0.0 mm
01:02 AM 38.1°F3.4°C 36.3°F2.4°C 93% Calm Calm -- 30.09 in1019.0 mb - 0.00 in0.0 mm 0.00 in0.0 mm
01:07 AM 38.1°F3.4°C 36.3°F2.4°C 93% Calm Calm -- 30.09 in1019.0 mb - 0.00 in0.0 mm 0.00 in0.0 mm
01:12 AM 38.1°F3.4°C 36.3°F2.4°C 93% Calm Calm -- 30.09 in1019.0 mb - 0.00 in0.0 mm 0.00 in0.0 mm
01:17 AM 38.5°F3.6°C 36.9°F2.7°C 94% Calm Calm -- 30.09 in1019.0 mb - 0.00 in0.0 mm 0.00 in0.0 mm
01:22 AM 38.5°F3.6°C 36.9°F2.7°C 94% Calm Calm -- 30.09 in1019.0 mb - 0.00 in0.0 mm 0.00 in0.0 mm
01:27 AM 38.5°F3.6°C 36.7°F2.6°C 93% Calm Calm -- 30.09 in1019.0 mb - 0.00 in0.0 mm 0.00 in0.0 mm
01:32 AM 37.9°F3.3°C 36.1°F2.3°C 93% Calm Calm -- 30.09 in1019.0 mb - 0.00 in0.0 mm 0.00 in0.0 mm
01:37 AM 37.9°F3.3°C 36.3°F2.4°C 94% Calm Calm -- 30.09 in1019.0 mb - 0.00 in0.0 mm 0.00 in0.0 mm
01:42 AM 37.9°F3.3°C 36.3°F2.4°C 94% Calm Calm -- 30.09 in1019.0 mb - 0.00 in0.0 mm 0.00 in0.0 mm
01:47 AM 37.9°F3.3°C 36.3°F2.4°C 94% Calm Calm -- 30.08 in1018.6 mb - 0.00 in0.0 mm 0.00 in0.0 mm
01:52 AM 38.1°F3.4°C 36.5°F2.5°C 94% Calm Calm -- 30.08 in1018.6 mb - 0.00 in0.0 mm 0.00 in0.0 mm
01:57 AM 38.1°F3.4°C 36.5°F2.5°C 94% Calm Calm -- 30.08 in1018.6 mb - 0.00 in0.0 mm 0.00 in0.0 mm
02:02 AM 37.9°F3.3°C 36.3°F2.4°C 94% Calm Calm -- 30.08 in1018.6 mb - 0.00 in0.0 mm 0.00 in0.0 mm
02:07 AM 37.9°F3.3°C 36.3°F2.4°C 94% Calm Calm -- 30.08 in1018.6 mb - 0.00 in0.0 mm 0.00 in0.0 mm
02:12 AM 37.8°F3.2°C 36.1°F2.3°C 94% Calm Calm -- 30.08 in1018.6 mb - 0.00 in0.0 mm 0.00 in0.0 mm
02:17 AM 37.6°F3.1°C 35.8°F2.1°C 93% Calm Calm -- 30.08 in1018.6 mb - 0.00 in0.0 mm 0.00 in0.0 mm
02:22 AM 37.4°F3.0°C 35.6°F2.0°C 93% Calm Calm -- 30.08 in1018.6 mb - 0.00 in0.0 mm 0.00 in0.0 mm
02:27 AM 37.0°F2.8°C 35.2°F1.8°C 93% Calm Calm -- 30.07 in1018.3 mb - 0.00 in0.0 mm 0.00 in0.0 mm
02:32 AM 37.2°F2.9°C 35.4°F1.9°C 93% Calm Calm -- 30.07 in1018.3 mb - 0.00 in0.0 mm 0.00 in0.0 mm
02:37 AM 37.0°F2.8°C 35.4°F1.9°C 94% Calm Calm -- 30.07 in1018.3 mb - 0.00 in0.0 mm 0.00 in0.0 mm
02:42 AM 37.0°F2.8°C 35.2°F1.8°C 93% Calm Calm -- 30.07 in1018.3 mb - 0.00 in0.0 mm 0.00 in0.0 mm
02:47 AM 36.9°F2.7°C 35.1°F1.7°C 93% Calm Calm -- 30.06 in1017.9 mb - 0.00 in0.0 mm 0.00 in0.0 mm
02:52 AM 36.9°F2.7°C 35.1°F1.7°C 93% Calm Calm -- 30.07 in1018.3 mb - 0.00 in0.0 mm 0.00 in0.0 mm
02:57 AM 36.9°F2.7°C 35.1°F1.7°C 93% Calm Calm -- 30.06 in1017.9 mb - 0.00 in0.0 mm 0.00 in0.0 mm
03:02 AM 36.9°F2.7°C 35.1°F1.7°C 93% Calm Calm -- 30.06 in1017.9 mb - 0.00 in0.0 mm 0.00 in0.0 mm
03:07 AM 36.9°F2.7°C 35.1°F1.7°C 93% Calm Calm -- 30.06 in1017.9 mb - 0.00 in0.0 mm 0.00 in0.0 mm
03:12 AM 36.9°F2.7°C 35.1°F1.7°C 93% Calm Calm -- 30.06 in1017.9 mb - 0.00 in0.0 mm 0.00 in0.0 mm
03:17 AM 36.9°F2.7°C 35.1°F1.7°C 93% Calm Calm -- 30.06 in1017.9 mb - 0.00 in0.0 mm 0.00 in0.0 mm
03:22 AM 36.9°F2.7°C 35.1°F1.7°C 93% Calm Calm -- 30.06 in1017.9 mb - 0.00 in0.0 mm 0.00 in0.0 mm
03:27 AM 36.7°F2.6°C 34.9°F1.6°C 93% Calm Calm -- 30.06 in1017.9 mb - 0.00 in0.0 mm 0.00 in0.0 mm
03:32 AM 36.9°F2.7°C 35.1°F1.7°C 93% Calm Calm -- 30.06 in1017.9 mb - 0.00 in0.0 mm 0.00 in0.0 mm
03:37 AM 36.7°F2.6°C 34.9°F1.6°C 93% Calm Calm -- 30.06 in1017.9 mb - 0.00 in0.0 mm 0.00 in0.0 mm
03:42 AM 36.7°F2.6°C 34.9°F1.6°C 93% Calm Calm -- 30.06 in1017.9 mb - 0.00 in0.0 mm 0.00 in0.0 mm
03:47 AM 36.7°F2.6°C 34.9°F1.6°C 93% Calm Calm -- 30.06 in1017.9 mb - 0.00 in0.0 mm 0.00 in0.0 mm
03:52 AM 36.7°F2.6°C 34.9°F1.6°C 93% Calm Calm -- 30.06 in1017.9 mb - 0.00 in0.0 mm 0.00 in0.0 mm
03:57 AM 36.9°F2.7°C 35.1°F1.7°C 93% Calm Calm -- 30.06 in1017.9 mb - 0.00 in0.0 mm 0.00 in0.0 mm
04:02 AM 36.7°F2.6°C 34.9°F1.6°C 93% Calm Calm -- 30.06 in1017.9 mb - 0.00 in0.0 mm 0.00 in0.0 mm
04:07 AM 36.9°F2.7°C 35.1°F1.7°C 93% Calm Calm -- 30.06 in1017.9 mb - 0.00 in0.0 mm 0.00 in0.0 mm
04:12 AM 36.9°F2.7°C 34.7°F1.5°C 92% Calm Calm -- 30.06 in1017.9 mb - 0.00 in0.0 mm 0.00 in0.0 mm
04:17 AM 36.9°F2.7°C 34.7°F1.5°C 92% Calm Calm -- 30.06 in1017.9 mb - 0.00 in0.0 mm 0.00 in0.0 mm
04:22 AM 36.9°F2.7°C 34.7°F1.5°C 92% Calm Calm -- 30.06 in1017.9 mb - 0.00 in0.0 mm 0.00 in0.0 mm
04:27 AM 36.7°F2.6°C 34.5°F1.4°C 92% Calm Calm -- 30.06 in1017.9 mb - 0.00 in0.0 mm 0.00 in0.0 mm
04:32 AM 36.5°F2.5°C 34.3°F1.3°C 92% Calm Calm -- 30.06 in1017.9 mb - 0.00 in0.0 mm 0.00 in0.0 mm
04:37 AM 36.7°F2.6°C 34.5°F1.4°C 92% Calm Calm -- 30.06 in1017.9 mb - 0.00 in0.0 mm 0.00 in0.0 mm
04:42 AM 36.5°F2.5°C 34.3°F1.3°C 92% Calm Calm -- 30.06 in1017.9 mb - 0.00 in0.0 mm 0.00 in0.0 mm
04:47 AM 36.7°F2.6°C 34.5°F1.4°C 92% Calm Calm -- 30.06 in1017.9 mb - 0.00 in0.0 mm 0.00 in0.0 mm
04:52 AM 36.7°F2.6°C 34.3°F1.3°C 91% Calm Calm -- 30.06 in1017.9 mb - 0.00 in0.0 mm 0.00 in0.0 mm
04:57 AM 36.5°F2.5°C 34.2°F1.2°C 91% Calm Calm -- 30.05 in1017.6 mb - 0.00 in0.0 mm 0.00 in0.0 mm
05:02 AM 36.5°F2.5°C 34.2°F1.2°C 91% Calm Calm -- 30.05 in1017.6 mb - 0.00 in0.0 mm 0.00 in0.0 mm
05:07 AM 36.5°F2.5°C 34.2°F1.2°C 91% Calm Calm -- 30.05 in1017.6 mb - 0.00 in0.0 mm 0.00 in0.0 mm
05:12 AM 36.7°F2.6°C 34.3°F1.3°C 91% Calm Calm -- 30.05 in1017.6 mb - 0.00 in0.0 mm 0.00 in0.0 mm
05:17 AM 36.9°F2.7°C 34.7°F1.5°C 92% Calm Calm -- 30.05 in1017.6 mb - 0.00 in0.0 mm 0.00 in0.0 mm
05:22 AM 36.9°F2.7°C 34.5°F1.4°C 91% Calm Calm -- 30.05 in1017.6 mb - 0.00 in0.0 mm 0.00 in0.0 mm
05:27 AM 36.9°F2.7°C 34.5°F1.4°C 91% Calm Calm -- 30.05 in1017.6 mb - 0.00 in0.0 mm 0.00 in0.0 mm
05:32 AM 36.9°F2.7°C 34.5°F1.4°C 91% Calm Calm -- 30.06 in1017.9 mb - 0.00 in0.0 mm 0.00 in0.0 mm
05:37 AM 37.0°F2.8°C 34.7°F1.5°C 91% Calm Calm -- 30.06 in1017.9 mb - 0.00 in0.0 mm 0.00 in0.0 mm
05:42 AM 36.9°F2.7°C 34.5°F1.4°C 91% Calm Calm -- 30.06 in1017.9 mb - 0.00 in0.0 mm 0.00 in0.0 mm
05:47 AM 36.9°F2.7°C 34.5°F1.4°C 91% Calm Calm -- 30.06 in1017.9 mb - 0.00 in0.0 mm 0.00 in0.0 mm
05:52 AM 37.0°F2.8°C 34.7°F1.5°C 91% Calm Calm -- 30.06 in1017.9 mb - 0.00 in0.0 mm 0.00 in0.0 mm
05:57 AM 37.0°F2.8°C 34.7°F1.5°C 91% Calm Calm -- 30.06 in1017.9 mb - 0.00 in0.0 mm 0.00 in0.0 mm
06:02 AM 37.0°F2.8°C 34.7°F1.5°C 91% Calm Calm -- 30.06 in1017.9 mb - 0.00 in0.0 mm 0.00 in0.0 mm
06:07 AM 37.2°F2.9°C 34.9°F1.6°C 91% Calm Calm -- 30.06 in1017.9 mb - 0.00 in0.0 mm 0.00 in0.0 mm
06:12 AM 37.2°F2.9°C 34.5°F1.4°C 90% Calm Calm -- 30.06 in1017.9 mb - 0.00 in0.0 mm 0.00 in0.0 mm
06:17 AM 37.4°F3.0°C 35.1°F1.7°C 91% Calm Calm -- 30.06 in1017.9 mb - 0.00 in0.0 mm 0.00 in0.0 mm
06:22 AM 37.8°F3.2°C 35.4°F1.9°C 91% Calm Calm -- 30.06 in1017.9 mb - 0.00 in0.0 mm 0.00 in0.0 mm
06:27 AM 37.8°F3.2°C 35.1°F1.7°C 90% Calm Calm -- 30.06 in1017.9 mb - 0.00 in0.0 mm 0.00 in0.0 mm
06:32 AM 37.8°F3.2°C 35.1°F1.7°C 90% Calm Calm -- 30.06 in1017.9 mb - 0.00 in0.0 mm 0.00 in0.0 mm
06:37 AM 37.8°F3.2°C 35.1°F1.7°C 90% Calm Calm -- 30.06 in1017.9 mb - 0.00 in0.0 mm 0.00 in0.0 mm
06:42 AM 38.1°F3.4°C 35.4°F1.9°C 90% Calm Calm -- 30.06 in1017.9 mb - 0.00 in0.0 mm 0.00 in0.0 mm
06:47 AM 38.5°F3.6°C 35.8°F2.1°C 90% Calm Calm -- 30.06 in1017.9 mb - 0.00 in0.0 mm 0.00 in0.0 mm
06:52 AM 38.7°F3.7°C 35.8°F2.1°C 89% Calm Calm -- 30.06 in1017.9 mb - 0.00 in0.0 mm 0.00 in0.0 mm
06:57 AM 39.0°F3.9°C 36.1°F2.3°C 89% Calm Calm -- 30.06 in1017.9 mb - 0.00 in0.0 mm 0.00 in0.0 mm
07:02 AM 39.2°F4.0°C 36.3°F2.4°C 89% Calm Calm -- 30.06 in1017.9 mb - 0.00 in0.0 mm 0.00 in0.0 mm
07:07 AM 39.7°F4.3°C 36.5°F2.5°C 88% Calm Calm -- 30.06 in1017.9 mb - 0.00 in0.0 mm 0.00 in0.0 mm
07:12 AM 40.6°F4.8°C 37.4°F3.0°C 88% Calm Calm -- 30.06 in1017.9 mb - 0.00 in0.0 mm 0.00 in0.0 mm
07:17 AM 41.5°F5.3°C 37.9°F3.3°C 87% Calm Calm -- 30.06 in1017.9 mb - 0.00 in0.0 mm 0.00 in0.0 mm
07:22 AM 43.0°F6.1°C 38.5°F3.6°C 84% Calm Calm -- 30.06 in1017.9 mb - 0.00 in0.0 mm 0.00 in0.0 mm
07:27 AM 43.3°F6.3°C 38.5°F3.6°C 83% Calm Calm 2.0 mph3.2 kmh 30.06 in1017.9 mb - 0.00 in0.0 mm 0.00 in0.0 mm
07:32 AM 44.2°F6.8°C 38.5°F3.6°C 80% 0.9 mph 1.4 kmh 2.0 mph3.2 kmh 30.06 in1017.9 mb - 0.00 in0.0 mm 0.00 in0.0 mm
07:37 AM 45.7°F7.6°C 38.5°F3.6°C 76% 2.0 mph N3.2 kmh N -- 30.06 in1017.9 mb - 0.00 in0.0 mm 0.00 in0.0 mm
07:42 AM 46.6°F8.1°C 38.7°F3.7°C 74% 0.9 mph 1.4 kmh -- 30.06 in1017.9 mb - 0.00 in0.0 mm 0.00 in0.0 mm
07:47 AM 47.1°F8.4°C 38.1°F3.4°C 71% Calm Calm 2.9 mph4.7 kmh 30.06 in1017.9 mb - 0.00 in0.0 mm 0.00 in0.0 mm
07:52 AM 47.8°F8.8°C 37.0°F2.8°C 66% 0.9 mph SW1.4 kmh SW -- 30.06 in1017.9 mb - 0.00 in0.0 mm 0.00 in0.0 mm
07:57 AM 48.0°F8.9°C 38.3°F3.5°C 69% 0.9 mph SE1.4 kmh SE 0.9 mph1.4 kmh 30.06 in1017.9 mb - 0.00 in0.0 mm 0.00 in0.0 mm
08:02 AM 48.6°F9.2°C 37.4°F3.0°C 65% 0.9 mph WSW1.4 kmh WSW 0.9 mph1.4 kmh 30.06 in1017.9 mb - 0.00 in0.0 mm 0.00 in0.0 mm
08:07 AM 47.8°F8.8°C 38.1°F3.4°C 69% 0.9 mph SE1.4 kmh SE -- 30.06 in1017.9 mb - 0.00 in0.0 mm 0.00 in0.0 mm
08:12 AM 48.0°F8.9°C 37.6°F3.1°C 67% 0.9 mph SE1.4 kmh SE -- 30.06 in1017.9 mb - 0.00 in0.0 mm 0.00 in0.0 mm
08:17 AM 48.6°F9.2°C 39.2°F4.0°C 70% Calm Calm -- 30.06 in1017.9 mb - 0.00 in0.0 mm 0.00 in0.0 mm
08:22 AM 48.9°F9.4°C 38.8°F3.8°C 68% Calm Calm 2.9 mph4.7 kmh 30.06 in1017.9 mb - 0.00 in0.0 mm 0.00 in0.0 mm
08:27 AM 49.1°F9.5°C 37.4°F3.0°C 64% 0.9 mph S1.4 kmh S -- 30.06 in1017.9 mb - 0.00 in0.0 mm 0.00 in0.0 mm
08:32 AM 49.5°F9.7°C 36.5°F2.5°C 61% 0.9 mph S1.4 kmh S -- 30.05 in1017.6 mb - 0.00 in0.0 mm 0.00 in0.0 mm
08:37 AM 50.2°F10.1°C 37.6°F3.1°C 62% 0.9 mph S1.4 kmh S -- 30.05 in1017.6 mb - 0.00 in0.0 mm 0.00 in0.0 mm
08:42 AM 50.7°F10.4°C 37.4°F3.0°C 60% 0.9 mph SSW1.4 kmh SSW -- 30.05 in1017.6 mb - 0.00 in0.0 mm 0.00 in0.0 mm
08:47 AM 51.3°F10.7°C 37.4°F3.0°C 59% 0.9 mph S1.4 kmh S 4.9 mph7.9 kmh 30.05 in1017.6 mb - 0.00 in0.0 mm 0.00 in0.0 mm
08:52 AM 51.3°F10.7°C 36.5°F2.5°C 57% 2.0 mph S3.2 kmh S 2.9 mph4.7 kmh 30.05 in1017.6 mb - 0.00 in0.0 mm 0.00 in0.0 mm
08:57 AM 51.6°F10.9°C 36.9°F2.7°C 57% 2.9 mph SSW4.7 kmh SSW 4.9 mph7.9 kmh 30.05 in1017.6 mb - 0.00 in0.0 mm 0.00 in0.0 mm
09:02 AM 52.2°F11.2°C 37.4°F3.0°C 57% 2.9 mph S4.7 kmh S 4.9 mph7.9 kmh 30.05 in1017.6 mb - 0.00 in0.0 mm 0.00 in0.0 mm
09:07 AM 52.3°F11.3°C 36.1°F2.3°C 54% 2.9 mph S4.7 kmh S 4.9 mph7.9 kmh 30.05 in1017.6 mb - 0.00 in0.0 mm 0.00 in0.0 mm
09:12 AM 52.5°F11.4°C 37.8°F3.2°C 57% 2.0 mph WSW3.2 kmh WSW 2.9 mph4.7 kmh 30.05 in1017.6 mb - 0.00 in0.0 mm 0.00 in0.0 mm
09:17 AM 53.1°F11.7°C 36.9°F2.7°C 54% 2.0 mph SW3.2 kmh SW -- 30.05 in1017.6 mb - 0.00 in0.0 mm 0.00 in0.0 mm
09:22 AM 52.9°F11.6°C 36.7°F2.6°C 54% 2.0 mph S3.2 kmh S 2.0 mph3.2 kmh 30.05 in1017.6 mb - 0.00 in0.0 mm 0.00 in0.0 mm
09:27 AM 52.9°F11.6°C 35.8°F2.1°C 52% 0.9 mph WSW1.4 kmh WSW -- 30.05 in1017.6 mb - 0.00 in0.0 mm 0.00 in0.0 mm
09:32 AM 53.2°F11.8°C 36.1°F2.3°C 52% 0.9 mph S1.4 kmh S -- 30.05 in1017.6 mb - 0.00 in0.0 mm 0.00 in0.0 mm
09:37 AM 53.8°F12.1°C 35.1°F1.7°C 49% 0.9 mph SW1.4 kmh SW 0.9 mph1.4 kmh 30.05 in1017.6 mb - 0.00 in0.0 mm 0.00 in0.0 mm
09:42 AM 54.0°F12.2°C 36.7°F2.6°C 52% 0.9 mph WSW1.4 kmh WSW 0.9 mph1.4 kmh 30.05 in1017.6 mb - 0.00 in0.0 mm 0.00 in0.0 mm
09:47 AM 54.1°F12.3°C 36.3°F2.4°C 51% 0.9 mph SE1.4 kmh SE 2.0 mph3.2 kmh 30.05 in1017.6 mb - 0.00 in0.0 mm 0.00 in0.0 mm
09:52 AM 54.0°F12.2°C 35.8°F2.1°C 50% 2.0 mph SW3.2 kmh SW -- 30.05 in1017.6 mb - 0.00 in0.0 mm 0.00 in0.0 mm
09:57 AM 54.1°F12.3°C 34.9°F1.6°C 48% 2.0 mph SW3.2 kmh SW -- 30.05 in1017.6 mb - 0.00 in0.0 mm 0.00 in0.0 mm
10:02 AM 55.2°F12.9°C 36.0°F2.2°C 48% 2.0 mph SW3.2 kmh SW 4.0 mph6.4 kmh 30.05 in1017.6 mb - 0.00 in0.0 mm 0.00 in0.0 mm
10:07 AM 54.7°F12.6°C 34.9°F1.6°C 47% 2.0 mph SE3.2 kmh SE -- 30.05 in1017.6 mb - 0.00 in0.0 mm 0.00 in0.0 mm
10:12 AM 54.9°F12.7°C 36.1°F2.3°C 49% 2.9 mph SSW4.7 kmh SSW 2.9 mph4.7 kmh 30.05 in1017.6 mb - 0.00 in0.0 mm 0.00 in0.0 mm
10:17 AM 55.2°F12.9°C 35.4°F1.9°C 47% 2.9 mph SW4.7 kmh SW 2.0 mph3.2 kmh 30.04 in1017.3 mb - 0.00 in0.0 mm 0.00 in0.0 mm
10:22 AM 55.0°F12.8°C 35.2°F1.8°C 47% 2.9 mph SSE4.7 kmh SSE -- 30.04 in1017.3 mb - 0.00 in0.0 mm 0.00 in0.0 mm
10:27 AM 55.0°F12.8°C 35.8°F2.1°C 48% 2.0 mph SSE3.2 kmh SSE 2.9 mph4.7 kmh 30.04 in1017.3 mb - 0.00 in0.0 mm 0.00 in0.0 mm
10:32 AM 56.1°F13.4°C 36.1°F2.3°C 47% 0.9 mph S1.4 kmh S 0.9 mph1.4 kmh 30.04 in1017.3 mb - 0.00 in0.0 mm 0.00 in0.0 mm
10:37 AM 55.9°F13.3°C 34.9°F1.6°C 45% 0.9 mph NNW1.4 kmh NNW -- 30.04 in1017.3 mb - 0.00 in0.0 mm 0.00 in0.0 mm
10:42 AM 55.9°F13.3°C 36.0°F2.2°C 47% 0.9 mph SW1.4 kmh SW -- 30.04 in1017.3 mb - 0.00 in0.0 mm 0.00 in0.0 mm
10:47 AM 56.7°F13.7°C 36.1°F2.3°C 46% 2.0 mph S3.2 kmh S 6.0 mph9.7 kmh 30.04 in1017.3 mb - 0.00 in0.0 mm 0.00 in0.0 mm
10:52 AM 57.0°F13.9°C 35.2°F1.8°C 44% 2.0 mph ESE3.2 kmh ESE -- 30.04 in1017.3 mb - 0.00 in0.0 mm 0.00 in0.0 mm
10:57 AM 57.4°F14.1°C 36.1°F2.3°C 45% 0.9 mph SSW1.4 kmh SSW -- 30.04 in1017.3 mb - 0.00 in0.0 mm 0.00 in0.0 mm
11:02 AM 57.0°F13.9°C 34.7°F1.5°C 43% 0.9 mph SSE1.4 kmh SSE 2.0 mph3.2 kmh 30.04 in1017.3 mb - 0.00 in0.0 mm 0.00 in0.0 mm
11:07 AM 57.6°F14.2°C 35.2°F1.8°C 43% 0.9 mph SW1.4 kmh SW 2.0 mph3.2 kmh 30.04 in1017.3 mb - 0.00 in0.0 mm 0.00 in0.0 mm
11:12 AM 56.8°F13.8°C 34.5°F1.4°C 43% 0.9 mph NW1.4 kmh NW 0.9 mph1.4 kmh 30.04 in1017.3 mb - 0.00 in0.0 mm 0.00 in0.0 mm
11:17 AM 57.4°F14.1°C 35.1°F1.7°C 43% 0.9 mph WSW1.4 kmh WSW 0.9 mph1.4 kmh 30.04 in1017.3 mb - 0.00 in0.0 mm 0.00 in0.0 mm
11:22 AM 57.2°F14.0°C 34.9°F1.6°C 43% 0.9 mph ENE1.4 kmh ENE -- 30.04 in1017.3 mb - 0.00 in0.0 mm 0.00 in0.0 mm
11:27 AM 58.5°F14.7°C 36.0°F2.2°C 43% Calm Calm 2.0 mph3.2 kmh 30.04 in1017.3 mb - 0.00 in0.0 mm 0.00 in0.0 mm
11:32 AM 58.5°F14.7°C 36.0°F2.2°C 43% 2.0 mph NW3.2 kmh NW 2.9 mph4.7 kmh 30.03 in1016.9 mb - 0.00 in0.0 mm 0.00 in0.0 mm
11:37 AM 57.7°F14.3°C 36.0°F2.2°C 44% 2.9 mph SW4.7 kmh SW 2.9 mph4.7 kmh 30.03 in1016.9 mb - 0.00 in0.0 mm 0.00 in0.0 mm
11:42 AM 58.5°F14.7°C 37.2°F2.9°C 45% 2.0 mph SW3.2 kmh SW -- 30.03 in1016.9 mb - 0.00 in0.0 mm 0.00 in0.0 mm
11:47 AM 59.0°F15.0°C 36.5°F2.5°C 43% 0.9 mph SW1.4 kmh SW 6.0 mph9.7 kmh 30.03 in1016.9 mb - 0.00 in0.0 mm 0.00 in0.0 mm
11:52 AM 59.2°F15.1°C 37.2°F2.9°C 44% 2.9 mph SSE4.7 kmh SSE 4.0 mph6.4 kmh 30.03 in1016.9 mb - 0.00 in0.0 mm 0.00 in0.0 mm
11:57 AM 58.8°F14.9°C 37.0°F2.8°C 44% 2.9 mph SE4.7 kmh SE 2.0 mph3.2 kmh 30.02 in1016.6 mb - 0.00 in0.0 mm 0.00 in0.0 mm
12:02 PM 59.2°F15.1°C 35.4°F1.9°C 41% 2.0 mph S3.2 kmh S -- 30.02 in1016.6 mb - 0.00 in0.0 mm 0.00 in0.0 mm
12:07 PM 59.4°F15.2°C 35.6°F2.0°C 41% 0.9 mph SW1.4 kmh SW -- 30.02 in1016.6 mb - 0.00 in0.0 mm 0.00 in0.0 mm
12:12 PM 58.8°F14.9°C 36.3°F2.4°C 43% 0.9 mph WNW1.4 kmh WNW 2.0 mph3.2 kmh 30.02 in1016.6 mb - 0.00 in0.0 mm 0.00 in0.0 mm
12:17 PM 58.8°F14.9°C 35.8°F2.1°C 42% 2.9 mph WSW4.7 kmh WSW 2.9 mph4.7 kmh 30.02 in1016.6 mb - 0.00 in0.0 mm 0.00 in0.0 mm
12:22 PM 59.2°F15.1°C 35.4°F1.9°C 41% 2.9 mph NW4.7 kmh NW 0.9 mph1.4 kmh 30.02 in1016.6 mb - 0.00 in0.0 mm 0.00 in0.0 mm
12:27 PM 59.4°F15.2°C 38.7°F3.7°C 46% 0.9 mph S1.4 kmh S 0.9 mph1.4 kmh 30.01 in1016.3 mb - 0.00 in0.0 mm 0.00 in0.0 mm
12:32 PM 59.7°F15.4°C 37.2°F2.9°C 43% 2.9 mph SSW4.7 kmh SSW -- 30.01 in1016.3 mb - 0.00 in0.0 mm 0.00 in0.0 mm
12:37 PM 59.7°F15.4°C 36.5°F2.5°C 42% 2.9 mph SSW4.7 kmh SSW -- 30.01 in1016.3 mb - 0.00 in0.0 mm 0.00 in0.0 mm
12:42 PM 60.3°F15.7°C 37.8°F3.2°C 43% 2.0 mph S3.2 kmh S 4.9 mph7.9 kmh 30.01 in1016.3 mb - 0.00 in0.0 mm 0.00 in0.0 mm
12:47 PM 59.5°F15.3°C 35.8°F2.1°C 41% 2.0 mph SSW3.2 kmh SSW 0.9 mph1.4 kmh 30.01 in1016.3 mb - 0.00 in0.0 mm 0.00 in0.0 mm
12:52 PM 60.4°F15.8°C 37.8°F3.2°C 43% 2.0 mph W3.2 kmh W 4.0 mph6.4 kmh 30.01 in1016.3 mb - 0.00 in0.0 mm 0.00 in0.0 mm
12:57 PM 60.1°F15.6°C 37.6°F3.1°C 43% 0.9 mph NNW1.4 kmh NNW -- 30.01 in1016.3 mb - 0.00 in0.0 mm 0.00 in0.0 mm
01:02 PM 60.8°F16.0°C 36.9°F2.7°C 41% 0.9 mph NW1.4 kmh NW -- 30.01 in1016.3 mb - 0.00 in0.0 mm 0.00 in0.0 mm
01:07 PM 60.4°F15.8°C 37.2°F2.9°C 42% Calm Calm -- 30.01 in1016.3 mb - 0.00 in0.0 mm 0.00 in0.0 mm
01:12 PM 61.2°F16.2°C 36.7°F2.6°C 40% 0.9 mph SW1.4 kmh SW 2.0 mph3.2 kmh 30.00 in1015.9 mb - 0.00 in0.0 mm 0.00 in0.0 mm
01:17 PM 61.3°F16.3°C 37.4°F3.0°C 41% 0.9 mph WSW1.4 kmh WSW -- 30.00 in1015.9 mb - 0.00 in0.0 mm 0.00 in0.0 mm
01:22 PM 60.6°F15.9°C 36.1°F2.3°C 40% 0.9 mph SSW1.4 kmh SSW -- 30.00 in1015.9 mb - 0.00 in0.0 mm 0.00 in0.0 mm
01:27 PM 59.7°F15.4°C 36.0°F2.2°C 41% 0.9 mph SSE1.4 kmh SSE -- 30.00 in1015.9 mb - 0.00 in0.0 mm 0.00 in0.0 mm
01:32 PM 60.6°F15.9°C 37.9°F3.3°C 43% 0.9 mph WSW1.4 kmh WSW -- 30.00 in1015.9 mb - 0.00 in0.0 mm 0.00 in0.0 mm
01:37 PM 60.4°F15.8°C 37.8°F3.2°C 43% Calm Calm -- 30.00 in1015.9 mb - 0.00 in0.0 mm 0.00 in0.0 mm
01:42 PM 59.7°F15.4°C 38.3°F3.5°C 45% Calm Calm -- 30.00 in1015.9 mb - 0.00 in0.0 mm 0.00 in0.0 mm
01:47 PM 59.7°F15.4°C 40.5°F4.7°C 49% Calm Calm -- 30.00 in1015.9 mb - 0.00 in0.0 mm 0.00 in0.0 mm
01:52 PM 61.3°F16.3°C 45.0°F7.2°C 55% Calm Calm 0.9 mph1.4 kmh 30.00 in1015.9 mb - 0.00 in0.0 mm 0.00 in0.0 mm
01:57 PM 61.3°F16.3°C 45.5°F7.5°C 56% 2.0 mph NNW3.2 kmh NNW 2.0 mph3.2 kmh 29.99 in1015.6 mb - 0.00 in0.0 mm 0.00 in0.0 mm
02:02 PM 61.5°F16.4°C 45.1°F7.3°C 55% 2.9 mph S4.7 kmh S 0.9 mph1.4 kmh 29.99 in1015.6 mb - 0.00 in0.0 mm 0.00 in0.0 mm
02:07 PM 61.5°F16.4°C 44.2°F6.8°C 53% 2.9 mph WNW4.7 kmh WNW -- 29.99 in1015.6 mb - 0.00 in0.0 mm 0.00 in0.0 mm
02:12 PM 61.3°F16.3°C 44.6°F7.0°C 54% 2.9 mph W4.7 kmh W 2.9 mph4.7 kmh 29.99 in1015.6 mb - 0.00 in0.0 mm 0.00 in0.0 mm
02:17 PM 61.3°F16.3°C 44.1°F6.7°C 53% 2.9 mph W4.7 kmh W 2.9 mph4.7 kmh 29.99 in1015.6 mb - 0.00 in0.0 mm 0.00 in0.0 mm
02:22 PM 61.3°F16.3°C 45.0°F7.2°C 55% 2.9 mph NW4.7 kmh NW 4.9 mph7.9 kmh 29.99 in1015.6 mb - 0.00 in0.0 mm 0.00 in0.0 mm
02:27 PM 62.2°F16.8°C 45.9°F7.7°C 55% 2.0 mph S3.2 kmh S -- 29.99 in1015.6 mb - 0.00 in0.0 mm 0.00 in0.0 mm
02:32 PM 61.0°F16.1°C 44.2°F6.8°C 54% 2.0 mph WNW3.2 kmh WNW 4.0 mph6.4 kmh 29.99 in1015.6 mb - 0.00 in0.0 mm 0.00 in0.0 mm
02:37 PM 60.6°F15.9°C 45.3°F7.4°C 57% 2.9 mph N4.7 kmh N 2.0 mph3.2 kmh 29.98 in1015.2 mb - 0.00 in0.0 mm 0.00 in0.0 mm
02:42 PM 60.4°F15.8°C 44.6°F7.0°C 56% 4.0 mph N6.4 kmh N 4.0 mph6.4 kmh 29.99 in1015.6 mb - 0.00 in0.0 mm 0.00 in0.0 mm
02:47 PM 60.6°F15.9°C 44.8°F7.1°C 56% 2.9 mph NW4.7 kmh NW 4.0 mph6.4 kmh 29.98 in1015.2 mb - 0.00 in0.0 mm 0.00 in0.0 mm
02:52 PM 60.4°F15.8°C 45.1°F7.3°C 57% 2.9 mph NW4.7 kmh NW 2.0 mph3.2 kmh 29.98 in1015.2 mb - 0.00 in0.0 mm 0.00 in0.0 mm
02:57 PM 60.1°F15.6°C 45.3°F7.4°C 58% 4.0 mph NNW6.4 kmh NNW 4.9 mph7.9 kmh 29.98 in1015.2 mb - 0.00 in0.0 mm 0.00 in0.0 mm
03:02 PM 60.1°F15.6°C 44.4°F6.9°C 56% 2.9 mph NW4.7 kmh NW 2.9 mph4.7 kmh 29.97 in1014.9 mb - 0.00 in0.0 mm 0.00 in0.0 mm
03:07 PM 59.7°F15.4°C 45.0°F7.2°C 58% 2.9 mph NW4.7 kmh NW 2.9 mph4.7 kmh 29.97 in1014.9 mb - 0.00 in0.0 mm 0.00 in0.0 mm
03:12 PM 59.7°F15.4°C 45.0°F7.2°C 58% 2.9 mph NW4.7 kmh NW 4.9 mph7.9 kmh 29.97 in1014.9 mb - 0.00 in0.0 mm 0.00 in0.0 mm
03:17 PM 60.4°F15.8°C 45.1°F7.3°C 57% 2.9 mph NNE4.7 kmh NNE 0.9 mph1.4 kmh 29.97 in1014.9 mb - 0.00 in0.0 mm 0.00 in0.0 mm
03:22 PM 61.3°F16.3°C 45.0°F7.2°C 55% 2.9 mph NW4.7 kmh NW 2.9 mph4.7 kmh 29.97 in1014.9 mb - 0.00 in0.0 mm 0.00 in0.0 mm
03:27 PM 60.4°F15.8°C 44.6°F7.0°C 56% 2.9 mph NW4.7 kmh NW 2.9 mph4.7 kmh 29.97 in1014.9 mb - 0.00 in0.0 mm 0.00 in0.0 mm
03:32 PM 59.9°F15.5°C 45.1°F7.3°C 58% 4.0 mph N6.4 kmh N -- 29.97 in1014.9 mb - 0.00 in0.0 mm 0.00 in0.0 mm
03:37 PM 60.4°F15.8°C 45.7°F7.6°C 58% 2.9 mph NW4.7 kmh NW 4.0 mph6.4 kmh 29.97 in1014.9 mb - 0.00 in0.0 mm 0.00 in0.0 mm
03:42 PM 61.0°F16.1°C 45.7°F7.6°C 57% 2.9 mph NW4.7 kmh NW 4.0 mph6.4 kmh 29.97 in1014.9 mb - 0.00 in0.0 mm 0.00 in0.0 mm
03:47 PM 60.1°F15.6°C 44.8°F7.1°C 57% 4.0 mph NW6.4 kmh NW -- 29.97 in1014.9 mb - 0.00 in0.0 mm 0.00 in0.0 mm
03:52 PM 59.5°F15.3°C 44.2°F6.8°C 57% 2.9 mph W4.7 kmh W 2.0 mph3.2 kmh 29.97 in1014.9 mb - 0.00 in0.0 mm 0.00 in0.0 mm
03:57 PM 59.0°F15.0°C 44.2°F6.8°C 58% 2.9 mph NW4.7 kmh NW 2.9 mph4.7 kmh 29.97 in1014.9 mb - 0.00 in0.0 mm 0.00 in0.0 mm
04:02 PM 58.8°F14.9°C 44.6°F7.0°C 59% 4.0 mph NW6.4 kmh NW 4.0 mph6.4 kmh 29.96 in1014.6 mb - 0.00 in0.0 mm 0.00 in0.0 mm
04:07 PM 58.6°F14.8°C 44.4°F6.9°C 59% 4.0 mph NW6.4 kmh NW 2.0 mph3.2 kmh 29.97 in1014.9 mb - 0.00 in0.0 mm 0.00 in0.0 mm
04:12 PM 58.6°F14.8°C 44.4°F6.9°C 59% 2.9 mph W4.7 kmh W -- 29.96 in1014.6 mb - 0.00 in0.0 mm 0.00 in0.0 mm
04:17 PM 59.2°F15.1°C 44.8°F7.1°C 59% 2.0 mph NW3.2 kmh NW -- 29.97 in1014.9 mb - 0.00 in0.0 mm 0.00 in0.0 mm
04:22 PM 60.1°F15.6°C 45.3°F7.4°C 58% 2.0 mph NW3.2 kmh NW 4.9 mph7.9 kmh 29.96 in1014.6 mb - 0.00 in0.0 mm 0.00 in0.0 mm
04:27 PM 61.0°F16.1°C 45.7°F7.6°C 57% 2.9 mph WNW4.7 kmh WNW 4.9 mph7.9 kmh 29.96 in1014.6 mb - 0.00 in0.0 mm 0.00 in0.0 mm
04:32 PM 60.4°F15.8°C 45.1°F7.3°C 57% 2.9 mph NNW4.7 kmh NNW 2.0 mph3.2 kmh 29.96 in1014.6 mb - 0.00 in0.0 mm 0.00 in0.0 mm
04:37 PM 60.3°F15.7°C 44.1°F6.7°C 55% 2.0 mph S3.2 kmh S 2.0 mph3.2 kmh 29.96 in1014.6 mb - 0.00 in0.0 mm 0.00 in0.0 mm
04:42 PM 59.7°F15.4°C 44.4°F6.9°C 57% 0.9 mph NW1.4 kmh NW 2.9 mph4.7 kmh 29.96 in1014.6 mb - 0.00 in0.0 mm 0.00 in0.0 mm
04:47 PM 59.7°F15.4°C 45.0°F7.2°C 58% Calm Calm 2.0 mph3.2 kmh 29.96 in1014.6 mb - 0.00 in0.0 mm 0.00 in0.0 mm
04:52 PM 61.0°F16.1°C 45.7°F7.6°C 57% 2.0 mph WNW3.2 kmh WNW 2.9 mph4.7 kmh 29.96 in1014.6 mb - 0.00 in0.0 mm 0.00 in0.0 mm
04:57 PM 61.0°F16.1°C 44.8°F7.1°C 55% 2.9 mph NW4.7 kmh NW 2.9 mph4.7 kmh 29.96 in1014.6 mb - 0.00 in0.0 mm 0.00 in0.0 mm
05:02 PM 60.8°F16.0°C 45.0°F7.2°C 56% 2.9 mph NW4.7 kmh NW 0.9 mph1.4 kmh 29.96 in1014.6 mb - 0.00 in0.0 mm 0.00 in0.0 mm
05:07 PM 60.4°F15.8°C 45.1°F7.3°C 57% 2.9 mph WSW4.7 kmh WSW 2.9 mph4.7 kmh 29.96 in1014.6 mb - 0.00 in0.0 mm 0.00 in0.0 mm
05:12 PM 60.1°F15.6°C 44.8°F7.1°C 57% 2.9 mph NW4.7 kmh NW 6.9 mph11.1 kmh 29.96 in1014.6 mb - 0.00 in0.0 mm 0.00 in0.0 mm
05:17 PM 59.5°F15.3°C 44.2°F6.8°C 57% 4.0 mph WNW6.4 kmh WNW 4.0 mph6.4 kmh 29.96 in1014.6 mb - 0.00 in0.0 mm 0.00 in0.0 mm
05:22 PM 59.2°F15.1°C 44.4°F6.9°C 58% 4.0 mph NW6.4 kmh NW 4.0 mph6.4 kmh 29.96 in1014.6 mb - 0.00 in0.0 mm 0.00 in0.0 mm
05:28 PM 58.8°F14.9°C 44.1°F6.7°C 58% 2.9 mph W4.7 kmh W -- 29.96 in1014.6 mb - 0.00 in0.0 mm 0.00 in0.0 mm
05:32 PM 58.8°F14.9°C 44.6°F7.0°C 59% 2.9 mph WNW4.7 kmh WNW 2.0 mph3.2 kmh 29.96 in1014.6 mb - 0.00 in0.0 mm 0.00 in0.0 mm
05:37 PM 59.0°F15.0°C 44.8°F7.1°C 59% 2.0 mph NNW3.2 kmh NNW -- 29.96 in1014.6 mb - 0.00 in0.0 mm 0.00 in0.0 mm
05:42 PM 60.1°F15.6°C 45.7°F7.6°C 59% 0.9 mph NW1.4 kmh NW 0.9 mph1.4 kmh 29.96 in1014.6 mb - 0.00 in0.0 mm 0.00 in0.0 mm
05:47 PM 59.7°F15.4°C 44.4°F6.9°C 57% 0.9 mph NW1.4 kmh NW 2.0 mph3.2 kmh 29.96 in1014.6 mb - 0.00 in0.0 mm 0.00 in0.0 mm
05:52 PM 59.7°F15.4°C 45.0°F7.2°C 58% 2.0 mph NW3.2 kmh NW 2.9 mph4.7 kmh 29.96 in1014.6 mb - 0.00 in0.0 mm 0.00 in0.0 mm
05:57 PM 59.7°F15.4°C 44.4°F6.9°C 57% 2.9 mph NW4.7 kmh NW -- 29.96 in1014.6 mb - 0.00 in0.0 mm 0.00 in0.0 mm
06:02 PM 59.4°F15.2°C 44.6°F7.0°C 58% 2.0 mph NNW3.2 kmh NNW 4.9 mph7.9 kmh 29.95 in1014.2 mb - 0.00 in0.0 mm 0.00 in0.0 mm
06:07 PM 59.5°F15.3°C 44.8°F7.1°C 58% 2.0 mph NW3.2 kmh NW -- 29.95 in1014.2 mb - 0.00 in0.0 mm 0.00 in0.0 mm
06:12 PM 59.5°F15.3°C 44.8°F7.1°C 58% 2.0 mph NW3.2 kmh NW 2.9 mph4.7 kmh 29.95 in1014.2 mb - 0.00 in0.0 mm 0.00 in0.0 mm
06:17 PM 58.8°F14.9°C 44.1°F6.7°C 58% 2.0 mph NNW3.2 kmh NNW 4.0 mph6.4 kmh 29.96 in1014.6 mb - 0.00 in0.0 mm 0.00 in0.0 mm
06:22 PM 58.1°F14.5°C 43.9°F6.6°C 59% 2.0 mph NW3.2 kmh NW -- 29.96 in1014.6 mb - 0.00 in0.0 mm 0.00 in0.0 mm
06:27 PM 57.6°F14.2°C 43.7°F6.5°C 60% 2.0 mph NW3.2 kmh NW 2.9 mph4.7 kmh 29.96 in1014.6 mb - 0.00 in0.0 mm 0.00 in0.0 mm
06:32 PM 56.8°F13.8°C 44.8°F7.1°C 64% 0.9 mph NW1.4 kmh NW -- 29.96 in1014.6 mb - 0.00 in0.0 mm 0.00 in0.0 mm
06:37 PM 56.5°F13.6°C 44.4°F6.9°C 64% 0.9 mph NNW1.4 kmh NNW -- 29.96 in1014.6 mb - 0.00 in0.0 mm 0.00 in0.0 mm
06:42 PM 56.1°F13.4°C 44.6°F7.0°C 65% 0.9 mph NW1.4 kmh NW -- 29.96 in1014.6 mb - 0.00 in0.0 mm 0.00 in0.0 mm
06:47 PM 55.8°F13.2°C 44.6°F7.0°C 66% Calm Calm -- 29.96 in1014.6 mb - 0.00 in0.0 mm 0.00 in0.0 mm
06:52 PM 55.4°F13.0°C 44.2°F6.8°C 66% Calm Calm 2.0 mph3.2 kmh 29.96 in1014.6 mb - 0.00 in0.0 mm 0.00 in0.0 mm
06:57 PM 55.0°F12.8°C 44.6°F7.0°C 68% Calm Calm -- 29.96 in1014.6 mb - 0.00 in0.0 mm 0.00 in0.0 mm
07:02 PM 54.7°F12.6°C 44.2°F6.8°C 68% Calm Calm -- 29.96 in1014.6 mb - 0.00 in0.0 mm 0.00 in0.0 mm
07:07 PM 54.3°F12.4°C 44.4°F6.9°C 69% Calm Calm -- 29.96 in1014.6 mb - 0.00 in0.0 mm 0.00 in0.0 mm
07:12 PM 54.1°F12.3°C 44.2°F6.8°C 69% Calm Calm -- 29.96 in1014.6 mb - 0.00 in0.0 mm 0.00 in0.0 mm
07:17 PM 54.0°F12.2°C 44.1°F6.7°C 69% Calm Calm -- 29.96 in1014.6 mb - 0.00 in0.0 mm 0.00 in0.0 mm
07:22 PM 53.6°F12.0°C 44.1°F6.7°C 70% Calm Calm -- 29.96 in1014.6 mb - 0.00 in0.0 mm 0.00 in0.0 mm
07:27 PM 53.2°F11.8°C 44.1°F6.7°C 71% Calm Calm -- 29.96 in1014.6 mb - 0.00 in0.0 mm 0.00 in0.0 mm
07:32 PM 52.9°F11.6°C 43.7°F6.5°C 71% 0.9 mph N1.4 kmh N -- 29.96 in1014.6 mb - 0.00 in0.0 mm 0.00 in0.0 mm
07:37 PM 52.5°F11.4°C 43.7°F6.5°C 72% 0.9 mph NW1.4 kmh NW 2.0 mph3.2 kmh 29.96 in1014.6 mb - 0.00 in0.0 mm 0.00 in0.0 mm
07:42 PM 52.3°F11.3°C 43.5°F6.4°C 72% 0.9 mph NNW1.4 kmh NNW 2.0 mph3.2 kmh 29.96 in1014.6 mb - 0.00 in0.0 mm 0.00 in0.0 mm
07:47 PM 52.2°F11.2°C 43.3°F6.3°C 72% 2.0 mph N3.2 kmh N -- 29.96 in1014.6 mb - 0.00 in0.0 mm 0.00 in0.0 mm
07:52 PM 51.6°F10.9°C 43.3°F6.3°C 73% Calm Calm -- 29.96 in1014.6 mb - 0.00 in0.0 mm 0.00 in0.0 mm
07:57 PM 51.3°F10.7°C 43.3°F6.3°C 74% Calm Calm -- 29.96 in1014.6 mb - 0.00 in0.0 mm 0.00 in0.0 mm
08:02 PM 50.7°F10.4°C 42.8°F6.0°C 74% Calm Calm -- 29.96 in1014.6 mb - 0.00 in0.0 mm 0.00 in0.0 mm
08:07 PM 50.4°F10.2°C 42.8°F6.0°C 75% Calm Calm -- 29.96 in1014.6 mb - 0.00 in0.0 mm 0.00 in0.0 mm
08:12 PM 50.2°F10.1°C 43.0°F6.1°C 76% Calm Calm -- 29.96 in1014.6 mb - 0.00 in0.0 mm 0.00 in0.0 mm
08:17 PM 49.6°F9.8°C 42.4°F5.8°C 76% Calm Calm 0.9 mph1.4 kmh 29.96 in1014.6 mb - 0.00 in0.0 mm 0.00 in0.0 mm
08:22 PM 49.6°F9.8°C 42.4°F5.8°C 76% Calm Calm -- 29.96 in1014.6 mb - 0.00 in0.0 mm 0.00 in0.0 mm
08:27 PM 49.5°F9.7°C 42.3°F5.7°C 76% Calm Calm -- 29.96 in1014.6 mb - 0.00 in0.0 mm 0.00 in0.0 mm
08:32 PM 48.9°F9.4°C 42.1°F5.6°C 77% Calm Calm -- 29.96 in1014.6 mb - 0.00 in0.0 mm 0.00 in0.0 mm
08:37 PM 48.7°F9.3°C 42.3°F5.7°C 78% Calm Calm -- 29.97 in1014.9 mb - 0.00 in0.0 mm 0.00 in0.0 mm
08:42 PM 48.4°F9.1°C 42.3°F5.7°C 79% Calm Calm -- 29.97 in1014.9 mb - 0.00 in0.0 mm 0.00 in0.0 mm
08:47 PM 48.2°F9.0°C 42.1°F5.6°C 79% Calm Calm -- 29.97 in1014.9 mb - 0.00 in0.0 mm 0.00 in0.0 mm
08:52 PM 48.0°F8.9°C 41.9°F5.5°C 79% Calm Calm -- 29.97 in1014.9 mb - 0.00 in0.0 mm 0.00 in0.0 mm
08:57 PM 47.8°F8.8°C 41.9°F5.5°C 80% Calm Calm -- 29.97 in1014.9 mb - 0.00 in0.0 mm 0.00 in0.0 mm
09:02 PM 47.8°F8.8°C 41.9°F5.5°C 80% Calm Calm -- 29.97 in1014.9 mb - 0.00 in0.0 mm 0.00 in0.0 mm
09:07 PM 47.7°F8.7°C 41.7°F5.4°C 80% Calm Calm -- 29.97 in1014.9 mb - 0.00 in0.0 mm 0.00 in0.0 mm
09:12 PM 47.3°F8.5°C 41.7°F5.4°C 81% Calm Calm -- 29.97 in1014.9 mb - 0.00 in0.0 mm 0.00 in0.0 mm
09:17 PM 47.1°F8.4°C 41.5°F5.3°C 81% Calm Calm -- 29.97 in1014.9 mb - 0.00 in0.0 mm 0.00 in0.0 mm
09:22 PM 46.9°F8.3°C 41.7°F5.4°C 82% Calm Calm -- 29.97 in1014.9 mb - 0.00 in0.0 mm 0.00 in0.0 mm
09:27 PM 46.8°F8.2°C 41.5°F5.3°C 82% Calm Calm -- 29.97 in1014.9 mb - 0.00 in0.0 mm 0.00 in0.0 mm
09:32 PM 46.6°F8.1°C 41.4°F5.2°C 82% Calm Calm -- 29.97 in1014.9 mb - 0.00 in0.0 mm 0.00 in0.0 mm
09:37 PM 46.6°F8.1°C 41.4°F5.2°C 82% Calm Calm -- 29.96 in1014.6 mb - 0.00 in0.0 mm 0.00 in0.0 mm
09:42 PM 46.6°F8.1°C 41.4°F5.2°C 82% Calm Calm -- 29.96 in1014.6 mb - 0.00 in0.0 mm 0.00 in0.0 mm
09:47 PM 46.2°F7.9°C 41.4°F5.2°C 83% Calm Calm -- 29.96 in1014.6 mb - 0.00 in0.0 mm 0.00 in0.0 mm
09:52 PM 46.0°F7.8°C 41.2°F5.1°C 83% Calm Calm -- 29.96 in1014.6 mb - 0.00 in0.0 mm 0.00 in0.0 mm
09:57 PM 45.9°F7.7°C 41.4°F5.2°C 84% Calm Calm -- 29.96 in1014.6 mb - 0.00 in0.0 mm 0.00 in0.0 mm
10:02 PM 45.9°F7.7°C 41.4°F5.2°C 84% Calm Calm -- 29.96 in1014.6 mb - 0.00 in0.0 mm 0.00 in0.0 mm
10:07 PM 45.9°F7.7°C 41.4°F5.2°C 84% Calm Calm -- 29.96 in1014.6 mb - 0.00 in0.0 mm 0.00 in0.0 mm
10:12 PM 45.7°F7.6°C 41.2°F5.1°C 84% Calm Calm -- 29.96 in1014.6 mb - 0.00 in0.0 mm 0.00 in0.0 mm
10:18 PM 45.9°F7.7°C 41.4°F5.2°C 84% Calm Calm -- 29.96 in1014.6 mb - 0.00 in0.0 mm 0.00 in0.0 mm
10:22 PM 45.7°F7.6°C 41.2°F5.1°C 84% Calm Calm -- 29.96 in1014.6 mb - 0.00 in0.0 mm 0.00 in0.0 mm
10:27 PM 45.3°F7.4°C 41.0°F5.0°C 85% Calm Calm -- 29.96 in1014.6 mb - 0.00 in0.0 mm 0.00 in0.0 mm
10:32 PM 45.3°F7.4°C 41.0°F5.0°C 85% Calm Calm -- 29.96 in1014.6 mb - 0.00 in0.0 mm 0.00 in0.0 mm
10:37 PM 45.1°F7.3°C 40.8°F4.9°C 85% Calm Calm -- 29.96 in1014.6 mb - 0.00 in0.0 mm 0.00 in0.0 mm
10:42 PM 45.0°F7.2°C 40.6°F4.8°C 85% Calm Calm 2.9 mph4.7 kmh 29.96 in1014.6 mb - 0.00 in0.0 mm 0.00 in0.0 mm
10:47 PM 45.1°F7.3°C 41.2°F5.1°C 86% Calm Calm -- 29.96 in1014.6 mb - 0.00 in0.0 mm 0.00 in0.0 mm
10:52 PM 45.0°F7.2°C 41.0°F5.0°C 86% Calm Calm -- 29.96 in1014.6 mb - 0.00 in0.0 mm 0.00 in0.0 mm
10:57 PM 45.0°F7.2°C 41.0°F5.0°C 86% Calm Calm -- 29.96 in1014.6 mb - 0.00 in0.0 mm 0.00 in0.0 mm
11:02 PM 44.8°F7.1°C 40.8°F4.9°C 86% Calm Calm -- 29.96 in1014.6 mb - 0.00 in0.0 mm 0.00 in0.0 mm
11:07 PM 44.6°F7.0°C 40.6°F4.8°C 86% Calm Calm -- 29.96 in1014.6 mb - 0.00 in0.0 mm 0.00 in0.0 mm
11:12 PM 44.4°F6.9°C 40.5°F4.7°C 86% Calm Calm -- 29.96 in1014.6 mb - 0.00 in0.0 mm 0.00 in0.0 mm
11:17 PM 44.6°F7.0°C 40.6°F4.8°C 86% Calm Calm -- 29.96 in1014.6 mb - 0.00 in0.0 mm 0.00 in0.0 mm
11:22 PM 44.4°F6.9°C 40.5°F4.7°C 86% Calm Calm -- 29.95 in1014.2 mb - 0.00 in0.0 mm 0.00 in0.0 mm
11:27 PM 44.4°F6.9°C 40.5°F4.7°C 86% Calm Calm -- 29.95 in1014.2 mb - 0.00 in0.0 mm 0.00 in0.0 mm
11:32 PM 44.2°F6.8°C 40.6°F4.8°C 87% Calm Calm -- 29.95 in1014.2 mb - 0.00 in0.0 mm 0.00 in0.0 mm
11:37 PM 44.2°F6.8°C 40.6°F4.8°C 87% Calm Calm -- 29.95 in1014.2 mb - 0.00 in0.0 mm 0.00 in0.0 mm
11:42 PM 44.2°F6.8°C 40.6°F4.8°C 87% Calm Calm -- 29.95 in1014.2 mb - 0.00 in0.0 mm 0.00 in0.0 mm
11:47 PM 44.2°F6.8°C 40.6°F4.8°C 87% Calm Calm -- 29.95 in1014.2 mb - 0.00 in0.0 mm 0.00 in0.0 mm
11:52 PM 44.2°F6.8°C 40.6°F4.8°C 87% Calm Calm -- 29.95 in1014.2 mb - 0.00 in0.0 mm 0.00 in0.0 mm
11:57 PM 44.1°F6.7°C 40.5°F4.7°C 87% Calm Calm -- 29.95 in1014.2 mb - 0.00 in0.0 mm 0.00 in0.0 mm